Terminal Aerodrome Forecast
Issued by NWS

Home | Current Version | Previous Version | Text Only | Print | Product List | Glossary On
Versions: 1 2 3 4 5 6 7 8 9 10 11 12 13 14 15 16 17 18 19 20 21 22 23 24 25 26 27 28 29 30 31 32 33 34 35 36 37 38 39 40 41 42 43 44 45 46 47 48 49 50
000
FTUS41 KCTP 300935 AAA
TAFJST
TAF AMD
KJST 300935Z 3010/3106 28012G17KT 2SM -SN BR BKN005 OVC009
      TEMPO 3010/3012 3SM -SN OVC003
     FM301200 29013G20KT 3SM -SHSN OVC009
     FM301500 29015G28KT 3SM -SHSN OVC015
     FM310200 30014G26KT P6SM VCSH OVC025=

USA.gov is the U.S. government's official web portal to all federal, state and local government web resources and services.